Terminal Aerodrome Forecast
Issued by NWS

Home | Current Version | Previous Version | Text Only | Print | Product List | Glossary On
Versions: 1 2 3 4 5 6 7 8 9 10 11 12 13 14 15 16 17 18 19 20 21 22 23 24 25 26 27
000
FTUS43 KDLH 201100
TAFHYR
TAF
KHYR 201129Z 2012/2112 VRB03KT 6SM BR OVC090
      TEMPO 2012/2014 3SM BR
     FM201500 19004KT P6SM SKC
     FM210800 VRB03KT 5SM BR SCT080=

USA.gov is the U.S. government's official web portal to all federal, state and local government web resources and services.